Time;durP1;ratioP1;P1;durP2;ratioP2;P2;SDS_P1;SDS_P2;PMS_P1;PMS_P2;Temp;Humidity;BMP_temperature;BMP_pressure;BME280_temperature;BME280_humidity;BME280_pressure;Samples;Min_cycle;Max_cycle;Signal;HPM_P1;HPM_P2
2022/01/23 00:01:09;;;;;;;9.75;6.60;;;3.30;99.90;;;;;;459866;258;28003;-69
2022/01/23 00:03:06;;;;;;;9.25;6.62;;;3.30;99.90;;;;;;459874;258;27995;-69
2022/01/23 00:05:06;;;;;;;10.80;7.12;;;3.30;99.90;;;;;;459847;258;28070;-69
2022/01/23 00:07:07;;;;;;;8.93;6.45;;;3.30;99.90;;;;;;459843;258;27506;-69
2022/01/23 00:09:06;;;;;;;10.63;6.65;;;3.30;99.90;;;;;;459837;258;27529;-70
2022/01/23 00:11:07;;;;;;;11.10;7.07;;;3.30;99.90;;;;;;459807;258;27462;-69
2022/01/23 00:17:35;;;;;;;8.85;6.50;;;3.30;99.90;;;;;;459848;254;28151;-69
2022/01/23 00:19:36;;;;;;;11.27;6.90;;;3.30;99.90;;;;;;460300;258;27492;-69
2022/01/23 00:21:39;;;;;;;8.30;6.35;;;3.30;99.90;;;;;;459868;258;27579;-69
2022/01/23 00:30:28;;;;;;;8.57;6.37;;;3.30;99.90;;;;;;460351;257;27658;-69
2022/01/23 00:32:23;;;;;;;11.50;6.35;;;3.30;99.90;;;;;;459686;258;27908;-69
2022/01/23 00:34:24;;;;;;;9.07;6.35;;;3.30;99.90;;;;;;459839;258;28006;-69
2022/01/23 00:36:25;;;;;;;8.23;6.65;;;3.30;99.90;;;;;;459892;258;28148;-70
2022/01/23 00:38:27;;;;;;;10.00;7.25;;;3.30;99.90;;;;;;459894;258;27539;-69
2022/01/23 00:40:28;;;;;;;9.95;6.55;;;3.30;99.90;;;;;;459866;258;27507;-69
2022/01/23 00:42:29;;;;;;;9.82;6.53;;;3.30;99.90;;;;;;459868;258;27474;-70
2022/01/23 00:44:31;;;;;;;10.23;7.25;;;3.30;99.90;;;;;;459865;258;27487;-69
2022/01/23 00:46:37;;;;;;;9.18;7.25;;;3.30;99.90;;;;;;459889;258;27495;-69
2022/01/23 00:48:38;;;;;;;10.10;7.07;;;3.30;99.90;;;;;;459904;258;28007;-69
2022/01/23 00:50:37;;;;;;;10.05;6.90;;;3.30;99.90;;;;;;459893;258;27539;-69
2022/01/23 00:52:38;;;;;;;10.20;7.25;;;3.20;99.90;;;;;;459909;258;27523;-70
2022/01/23 00:54:39;;;;;;;10.80;7.10;;;3.20;99.90;;;;;;459862;254;27606;-69
2022/01/23 00:56:41;;;;;;;10.73;7.40;;;3.20;99.90;;;;;;459914;258;27491;-69
2022/01/23 00:58:42;;;;;;;11.88;6.75;;;3.20;99.90;;;;;;459919;258;27502;-69
2022/01/23 01:00:43;;;;;;;9.70;6.22;;;3.30;99.90;;;;;;459891;258;27472;-69
2022/01/23 01:02:44;;;;;;;10.25;7.47;;;3.20;99.90;;;;;;459890;258;27520;-69
2022/01/23 01:04:46;;;;;;;9.15;6.78;;;3.30;99.90;;;;;;459887;258;28813;-69
2022/01/23 01:06:47;;;;;;;11.10;7.53;;;3.30;99.90;;;;;;459896;258;27926;-69
2022/01/23 01:08:50;;;;;;;9.90;7.20;;;3.30;99.90;;;;;;459899;258;27982;-69
2022/01/23 01:11:27;;;;;;;9.23;6.93;;;3.30;99.90;;;;;;459865;258;27477;-69
2022/01/23 01:13:05;;;;;;;11.15;7.50;;;3.30;99.90;;;;;;459914;258;27595;-69
2022/01/23 01:31:52;;;;;;;11.95;8.15;;;3.30;99.90;;;;;;460365;257;27951;-69
2022/01/23 01:35:28;;;;;;;9.27;6.60;;;3.30;99.90;;;;;;459876;258;27510;-69
2022/01/23 01:37:24;;;;;;;10.18;6.80;;;3.30;99.90;;;;;;459866;258;27502;-69
2022/01/23 01:39:25;;;;;;;13.48;7.95;;;3.30;99.90;;;;;;459857;258;27495;-69
2022/01/23 01:41:26;;;;;;;10.85;7.35;;;3.30;99.90;;;;;;459851;258;27459;-70
2022/01/23 01:43:28;;;;;;;13.00;8.45;;;3.30;99.90;;;;;;459877;258;27474;-69
2022/01/23 01:45:29;;;;;;;13.32;7.93;;;3.30;99.90;;;;;;459905;258;27499;-70
2022/01/23 01:47:30;;;;;;;12.35;7.78;;;3.30;99.90;;;;;;459880;258;27482;-69
2022/01/23 01:49:33;;;;;;;14.73;8.32;;;3.30;99.90;;;;;;459869;258;27956;-69
2022/01/23 01:51:33;;;;;;;9.60;7.10;;;3.30;99.90;;;;;;459874;258;28144;-70
2022/01/23 01:53:34;;;;;;;12.65;7.95;;;3.20;99.90;;;;;;459868;258;28025;-69
2022/01/23 01:55:41;;;;;;;12.30;7.75;;;3.20;99.90;;;;;;459876;258;27530;-69
2022/01/23 01:57:43;;;;;;;13.77;8.30;;;3.20;99.90;;;;;;459861;258;27546;-69
2022/01/23 02:08:28;;;;;;;10.07;7.22;;;3.30;99.90;;;;;;459873;258;27467;-69
2022/01/23 02:10:27;;;;;;;16.58;8.88;;;3.20;99.90;;;;;;460334;258;27511;-69
2022/01/23 02:14:46;;;;;;;11.60;7.65;;;3.20;99.90;;;;;;451515;263;27749;-69
2022/01/23 02:17:40;;;;;;;11.12;7.78;;;3.20;99.90;;;;;;451710;262;27685;-69
2022/01/23 02:23:22;;;;;;;12.90;8.32;;;3.20;99.90;;;;;;451557;262;29235;-69
2022/01/23 02:25:28;;;;;;;11.57;7.97;;;3.20;99.90;;;;;;451981;262;28053;-69
2022/01/23 02:52:51;;;;;;;11.35;7.60;;;3.20;99.90;;;;;;456032;258;27493;-69
2022/01/23 02:56:51;;;;;;;11.85;8.10;;;3.20;99.90;;;;;;459875;258;28538;-69
2022/01/23 02:58:58;;;;;;;16.48;9.98;;;3.20;99.90;;;;;;459885;258;28015;-69
2022/01/23 03:01:10;;;;;;;17.27;10.05;;;3.20;99.90;;;;;;459724;258;27962;-70
2022/01/23 03:03:12;;;;;;;13.65;8.93;;;3.20;99.90;;;;;;459885;258;27502;-70
2022/01/23 03:05:12;;;;;;;13.62;8.52;;;3.20;99.90;;;;;;459902;258;27498;-69
2022/01/23 03:13:57;;;;;;;13.02;8.68;;;3.20;99.90;;;;;;459859;258;29013;-70
2022/01/23 03:27:24;;;;;;;13.70;7.80;;;3.20;99.90;;;;;;460332;258;27460;-69
2022/01/23 03:31:31;;;;;;;15.05;9.07;;;3.20;99.90;;;;;;459881;258;29020;-69
2022/01/23 03:33:28;;;;;;;15.05;9.40;;;3.20;99.90;;;;;;459827;258;27483;-69
2022/01/23 03:35:30;;;;;;;14.38;8.43;;;3.30;99.90;;;;;;459852;258;27538;-69
2022/01/23 03:37:31;;;;;;;14.02;8.43;;;3.20;99.90;;;;;;459869;258;27503;-69
2022/01/23 03:39:32;;;;;;;12.88;8.70;;;3.20;99.90;;;;;;459870;258;27455;-69
2022/01/23 03:41:33;;;;;;;15.20;9.10;;;3.20;99.90;;;;;;459844;258;27530;-69
2022/01/23 03:43:37;;;;;;;14.60;9.48;;;3.20;99.90;;;;;;459856;258;27869;-70
2022/01/23 03:47:52;;;;;;;15.40;8.48;;;3.20;99.90;;;;;;459864;258;27478;-69
2022/01/23 03:49:41;;;;;;;13.77;8.75;;;3.20;99.90;;;;;;459879;258;27594;-70
2022/01/23 03:51:43;;;;;;;15.25;9.20;;;3.20;99.90;;;;;;459864;258;27498;-69
2022/01/23 03:53:44;;;;;;;12.27;7.50;;;3.20;99.90;;;;;;459877;258;27586;-69
2022/01/23 03:55:45;;;;;;;10.73;7.60;;;3.10;99.90;;;;;;459857;258;27500;-69
2022/01/23 03:57:46;;;;;;;12.57;8.38;;;3.10;99.90;;;;;;459857;258;27475;-69
2022/01/23 03:59:48;;;;;;;10.57;7.80;;;3.10;99.90;;;;;;460322;258;28006;-69
2022/01/23 04:01:49;;;;;;;12.75;7.72;;;3.10;99.90;;;;;;459880;258;29247;-70
2022/01/23 04:03:53;;;;;;;13.65;7.95;;;3.10;99.90;;;;;;459869;258;27458;-70
2022/01/23 04:05:52;;;;;;;11.18;7.60;;;3.10;99.90;;;;;;459829;258;27502;-70
2022/01/23 04:07:53;;;;;;;10.27;6.80;;;3.10;99.90;;;;;;459847;258;27455;-69
2022/01/23 04:09:54;;;;;;;10.70;7.65;;;3.10;99.90;;;;;;459833;258;27589;-69
2022/01/23 04:11:57;;;;;;;10.73;6.95;;;3.10;99.90;;;;;;459872;258;27533;-69
2022/01/23 04:14:03;;;;;;;12.68;7.95;;;3.10;99.90;;;;;;459861;258;27452;-69
2022/01/23 04:20:36;;;;;;;13.00;8.68;;;3.00;99.90;;;;;;460322;258;28056;-69
2022/01/23 04:32:08;;;;;;;11.73;7.80;;;3.10;99.90;;;;;;459890;258;27544;-69
2022/01/23 04:33:58;;;;;;;12.37;8.10;;;3.10;99.90;;;;;;459912;258;27607;-70
2022/01/23 05:01:36;;;;;;;10.40;7.18;;;3.00;99.90;;;;;;460354;257;27559;-70
2022/01/23 05:05:42;;;;;;;12.27;7.40;;;3.00;99.90;;;;;;451538;263;27672;-68
2022/01/23 05:07:46;;;;;;;11.65;7.05;;;3.00;99.90;;;;;;454439;258;27521;-68
2022/01/23 05:09:44;;;;;;;9.80;6.78;;;3.00;99.90;;;;;;460347;258;27535;-68
2022/01/23 05:11:50;;;;;;;10.45;7.18;;;3.00;99.90;;;;;;459894;258;27597;-68
2022/01/23 05:13:50;;;;;;;12.30;6.60;;;3.00;99.90;;;;;;459859;258;28003;-68
2022/01/23 05:15:51;;;;;;;10.15;6.65;;;3.00;99.90;;;;;;459893;258;27499;-68
2022/01/23 05:17:52;;;;;;;10.35;7.15;;;3.00;99.90;;;;;;459851;258;27559;-68
2022/01/23 05:19:53;;;;;;;10.85;7.65;;;3.00;99.90;;;;;;459868;258;27584;-68
2022/01/23 05:24:05;;;;;;;13.32;8.35;;;3.10;99.90;;;;;;459881;258;27915;-68
2022/01/23 05:26:06;;;;;;;12.90;8.63;;;3.00;99.90;;;;;;459870;258;27583;-68
2022/01/23 05:28:07;;;;;;;12.73;8.63;;;3.10;99.90;;;;;;459866;258;27578;-68
2022/01/23 05:30:09;;;;;;;11.70;7.95;;;3.10;99.90;;;;;;459885;258;27483;-68
2022/01/23 05:32:12;;;;;;;12.55;8.13;;;3.10;99.90;;;;;;459881;258;27474;-68
2022/01/23 05:34:11;;;;;;;11.32;7.90;;;3.10;99.90;;;;;;459860;258;27598;-68
2022/01/23 05:36:12;;;;;;;12.52;7.82;;;3.10;99.90;;;;;;459863;258;27459;-68
2022/01/23 05:38:14;;;;;;;12.70;7.72;;;3.10;99.90;;;;;;459874;258;28047;-68
2022/01/23 05:40:17;;;;;;;10.95;7.90;;;3.10;99.90;;;;;;459892;258;27975;-68
2022/01/23 05:42:16;;;;;;;12.13;8.50;;;3.10;99.90;;;;;;459855;258;28059;-68
2022/01/23 05:44:17;;;;;;;9.95;6.82;;;3.10;99.90;;;;;;459868;258;27538;-68
2022/01/23 05:46:19;;;;;;;9.32;8.02;;;3.10;99.90;;;;;;459859;258;27464;-68
2022/01/23 05:48:20;;;;;;;13.40;8.20;;;3.10;99.90;;;;;;459845;258;27488;-68
2022/01/23 05:50:21;;;;;;;10.60;7.40;;;3.00;99.90;;;;;;459874;258;27614;-68
2022/01/23 05:52:22;;;;;;;11.43;8.10;;;3.00;99.90;;;;;;459883;258;27491;-68
2022/01/23 05:54:24;;;;;;;10.73;7.40;;;3.00;99.90;;;;;;459872;258;27582;-68
2022/01/23 05:56:25;;;;;;;11.02;7.43;;;3.00;99.90;;;;;;459864;258;27569;-68
2022/01/23 05:58:26;;;;;;;10.93;7.43;;;3.00;99.90;;;;;;459878;258;27504;-68
2022/01/23 06:00:27;;;;;;;9.30;6.68;;;3.00;99.90;;;;;;459874;258;27981;-68
2022/01/23 06:02:29;;;;;;;10.02;7.10;;;3.00;99.90;;;;;;459849;258;27929;-68
2022/01/23 06:04:30;;;;;;;9.70;6.75;;;3.00;99.90;;;;;;459816;258;27605;-67
2022/01/23 06:06:31;;;;;;;10.90;7.60;;;3.00;99.90;;;;;;459697;258;27610;-68
2022/01/23 06:08:32;;;;;;;11.07;7.20;;;3.00;99.90;;;;;;459718;258;27507;-68
2022/01/23 06:10:48;;;;;;;10.85;6.90;;;3.00;99.90;;;;;;459671;258;27494;-68
2022/01/23 06:12:35;;;;;;;14.60;7.50;;;3.00;99.90;;;;;;459733;258;27456;-68
2022/01/23 06:14:36;;;;;;;8.95;6.50;;;3.00;99.90;;;;;;459780;258;27552;-68
2022/01/23 06:16:37;;;;;;;9.70;6.87;;;3.00;99.90;;;;;;459867;258;27505;-68
2022/01/23 06:18:40;;;;;;;8.90;6.32;;;3.00;99.90;;;;;;459889;258;27458;-68
2022/01/23 06:20:40;;;;;;;10.95;7.12;;;3.00;99.90;;;;;;459870;258;27510;-68
2022/01/23 06:22:43;;;;;;;9.50;6.65;;;3.00;99.90;;;;;;459896;258;27908;-68
2022/01/23 06:24:48;;;;;;;9.10;6.30;;;3.10;99.90;;;;;;459879;258;27926;-68
2022/01/23 06:26:44;;;;;;;11.73;7.12;;;3.10;99.90;;;;;;459641;258;29060;-68
2022/01/23 06:28:45;;;;;;;9.85;7.60;;;3.10;99.90;;;;;;459897;258;27532;-68
2022/01/23 06:30:46;;;;;;;11.93;6.97;;;3.10;99.90;;;;;;459880;258;27620;-68
2022/01/23 06:32:47;;;;;;;9.48;6.93;;;3.10;99.90;;;;;;459873;258;27548;-68
2022/01/23 06:34:49;;;;;;;12.90;7.70;;;3.10;99.90;;;;;;459894;258;27459;-68
2022/01/23 06:36:52;;;;;;;15.45;9.40;;;3.10;99.90;;;;;;459858;258;27495;-68
2022/01/23 06:38:51;;;;;;;15.88;9.65;;;3.10;99.90;;;;;;459860;258;27547;-68
2022/01/23 06:40:52;;;;;;;18.00;10.43;;;3.20;99.90;;;;;;459864;258;27503;-68
2022/01/23 06:42:54;;;;;;;19.00;10.45;;;3.20;99.90;;;;;;459878;258;28516;-68
2022/01/23 06:44:56;;;;;;;16.05;10.20;;;3.20;99.90;;;;;;459882;258;27920;-68
2022/01/23 06:46:56;;;;;;;16.67;10.30;;;3.20;99.90;;;;;;459853;258;27987;-68
2022/01/23 06:48:57;;;;;;;15.20;10.35;;;3.20;99.90;;;;;;459855;258;27452;-68
2022/01/23 06:50:59;;;;;;;18.75;11.65;;;3.30;99.90;;;;;;459857;258;27576;-68
2022/01/23 06:53:01;;;;;;;18.77;11.15;;;3.30;99.90;;;;;;459880;258;27559;-68
2022/01/23 06:55:03;;;;;;;17.67;10.50;;;3.20;99.90;;;;;;459867;258;27498;-68
2022/01/23 06:57:04;;;;;;;14.52;9.65;;;3.10;99.90;;;;;;459854;258;28415;-68
2022/01/23 06:59:05;;;;;;;13.62;9.20;;;3.10;99.90;;;;;;459877;258;27934;-68
2022/01/23 07:01:07;;;;;;;15.27;9.85;;;3.10;99.90;;;;;;459851;258;28081;-68
2022/01/23 07:03:08;;;;;;;14.98;10.15;;;3.10;99.90;;;;;;459857;258;27510;-68
2022/01/23 07:05:09;;;;;;;14.10;9.52;;;3.20;99.90;;;;;;459838;258;27539;-68
2022/01/23 07:07:10;;;;;;;15.68;9.23;;;3.20;99.90;;;;;;459879;258;27592;-68
2022/01/23 07:09:11;;;;;;;13.27;8.40;;;3.20;99.90;;;;;;459866;258;27931;-68
2022/01/23 07:11:13;;;;;;;13.02;8.70;;;3.10;99.90;;;;;;459860;258;28066;-68
2022/01/23 07:13:14;;;;;;;13.77;8.65;;;3.10;99.90;;;;;;459859;258;27463;-68
2022/01/23 07:15:15;;;;;;;10.70;7.65;;;3.10;99.90;;;;;;459850;258;27494;-68
2022/01/23 07:17:16;;;;;;;11.82;8.00;;;3.10;99.90;;;;;;459844;258;27522;-68
2022/01/23 07:19:18;;;;;;;12.82;7.93;;;3.00;99.90;;;;;;459853;258;27604;-68
2022/01/23 07:21:19;;;;;;;11.30;8.00;;;3.00;99.90;;;;;;459862;258;27502;-68
2022/01/23 07:23:22;;;;;;;12.27;8.38;;;3.00;99.90;;;;;;459847;258;27561;-68
2022/01/23 07:25:21;;;;;;;15.00;9.40;;;3.00;99.90;;;;;;459874;258;27456;-68
2022/01/23 07:27:23;;;;;;;16.55;10.27;;;3.10;99.90;;;;;;459863;258;27983;-68
2022/01/23 07:29:24;;;;;;;19.45;10.40;;;3.20;99.90;;;;;;459864;258;27932;-68
2022/01/23 07:33:36;;;;;;;19.70;11.82;;;3.20;99.90;;;;;;459866;258;27620;-68
2022/01/23 07:35:37;;;;;;;16.50;10.75;;;3.20;99.90;;;;;;459865;258;27523;-68
2022/01/23 07:37:38;;;;;;;22.00;13.68;;;3.30;99.90;;;;;;459908;258;27490;-68
2022/01/23 07:39:39;;;;;;;24.67;12.70;;;3.20;99.90;;;;;;459910;258;27502;-68
2022/01/23 07:41:40;;;;;;;22.52;13.70;;;3.30;99.90;;;;;;459903;258;27538;-68
2022/01/23 07:43:42;;;;;;;26.50;15.10;;;3.20;99.90;;;;;;459915;258;27522;-68
2022/01/23 07:45:43;;;;;;;22.85;14.38;;;3.20;99.90;;;;;;459911;258;28059;-68
2022/01/23 07:47:44;;;;;;;24.98;13.62;;;3.20;99.90;;;;;;459893;258;27926;-68
2022/01/23 07:49:49;;;;;;;20.27;12.10;;;3.20;99.90;;;;;;459876;258;29181;-68
2022/01/23 07:51:47;;;;;;;20.73;12.15;;;3.30;99.90;;;;;;459925;258;27507;-68
2022/01/23 07:53:48;;;;;;;18.70;11.48;;;3.30;99.90;;;;;;459918;258;27458;-68
2022/01/23 07:55:49;;;;;;;18.85;11.38;;;3.30;99.90;;;;;;459907;258;27566;-68
2022/01/23 07:57:52;;;;;;;18.92;11.52;;;3.30;99.90;;;;;;459898;258;27538;-68
2022/01/23 07:59:52;;;;;;;20.85;13.18;;;3.30;99.90;;;;;;459877;258;27487;-68
2022/01/23 08:01:53;;;;;;;23.80;14.45;;;3.30;99.90;;;;;;459922;258;27999;-68
2022/01/23 08:03:54;;;;;;;25.80;14.98;;;3.30;99.90;;;;;;459891;258;29139;-68
2022/01/23 08:05:56;;;;;;;23.08;14.15;;;3.30;99.90;;;;;;459924;258;27486;-68
2022/01/23 08:07:57;;;;;;;20.33;13.07;;;3.30;99.90;;;;;;459895;258;27510;-68
2022/01/23 08:09:58;;;;;;;22.48;13.15;;;3.30;99.90;;;;;;459896;258;27478;-68
2022/01/23 08:11:59;;;;;;;20.15;12.23;;;3.30;99.90;;;;;;459920;258;27532;-68
2022/01/23 08:14:01;;;;;;;20.05;12.45;;;3.40;99.90;;;;;;459892;258;27572;-68
2022/01/23 08:16:02;;;;;;;19.10;12.13;;;3.40;99.90;;;;;;459912;258;27506;-68
2022/01/23 08:18:03;;;;;;;21.77;12.27;;;3.40;99.90;;;;;;459896;258;28696;-68
2022/01/23 08:20:04;;;;;;;18.02;10.93;;;3.40;99.90;;;;;;459909;258;27926;-68
2022/01/23 08:22:06;;;;;;;15.95;10.80;;;3.50;99.90;;;;;;459898;258;27570;-68
2022/01/23 08:24:07;;;;;;;17.23;10.18;;;3.50;99.90;;;;;;459892;258;27491;-68
2022/01/23 08:26:08;;;;;;;17.25;10.10;;;3.50;99.90;;;;;;459895;258;27530;-68
2022/01/23 08:28:10;;;;;;;15.75;9.13;;;3.50;99.90;;;;;;459915;258;27548;-68
2022/01/23 08:30:13;;;;;;;13.25;8.73;;;3.60;99.90;;;;;;459894;258;27526;-68
2022/01/23 08:32:12;;;;;;;15.23;9.95;;;3.60;99.90;;;;;;459889;258;27494;-68
2022/01/23 08:34:13;;;;;;;13.62;9.38;;;3.60;99.90;;;;;;459897;258;27996;-68
2022/01/23 08:36:14;;;;;;;14.25;8.68;;;3.60;99.90;;;;;;459896;258;27969;-69
2022/01/23 08:38:16;;;;;;;11.23;8.20;;;3.60;99.90;;;;;;459920;258;27972;-68
2022/01/23 08:40:21;;;;;;;11.73;8.60;;;3.60;99.90;;;;;;459894;258;27517;-68
2022/01/23 08:42:18;;;;;;;11.48;8.10;;;3.60;99.90;;;;;;459903;258;27503;-68
2022/01/23 08:44:19;;;;;;;13.30;8.48;;;3.60;99.90;;;;;;459881;258;27470;-68
2022/01/23 08:46:21;;;;;;;13.55;9.05;;;3.70;99.90;;;;;;459899;258;27495;-68
2022/01/23 08:48:22;;;;;;;11.23;7.62;;;3.70;99.90;;;;;;459890;258;27511;-68
2022/01/23 08:50:23;;;;;;;14.15;8.30;;;3.70;99.90;;;;;;459858;258;27491;-70
2022/01/23 08:52:24;;;;;;;11.95;8.60;;;3.70;99.90;;;;;;459894;258;27503;-68
2022/01/23 08:54:26;;;;;;;9.13;7.18;;;3.70;99.90;;;;;;459876;258;27912;-68
2022/01/23 08:56:27;;;;;;;11.43;7.72;;;3.70;99.90;;;;;;459875;258;28090;-68
2022/01/23 08:58:28;;;;;;;10.38;7.03;;;3.70;99.90;;;;;;459860;258;28020;-68
2022/01/23 09:00:29;;;;;;;11.90;7.65;;;3.70;99.90;;;;;;459874;258;27470;-69
2022/01/23 09:02:31;;;;;;;10.00;7.40;;;3.80;99.90;;;;;;459870;258;27598;-68
2022/01/23 09:04:32;;;;;;;11.50;7.55;;;3.70;99.90;;;;;;459873;258;27488;-68
2022/01/23 09:06:33;;;;;;;12.30;7.95;;;3.80;99.90;;;;;;459902;258;27475;-68
2022/01/23 09:08:37;;;;;;;11.27;7.57;;;3.80;99.90;;;;;;459902;258;27505;-68
2022/01/23 09:10:53;;;;;;;10.95;8.23;;;3.80;99.90;;;;;;459875;258;27467;-68
2022/01/23 09:12:58;;;;;;;10.43;7.15;;;3.80;99.90;;;;;;459909;258;27920;-68
2022/01/23 09:14:44;;;;;;;12.50;8.90;;;3.80;99.90;;;;;;459972;258;28006;-68
2022/01/23 09:16:46;;;;;;;12.30;8.52;;;3.90;99.90;;;;;;459906;258;28016;-68
2022/01/23 09:18:47;;;;;;;12.52;9.13;;;3.80;99.90;;;;;;459893;258;27642;-68
2022/01/23 09:20:48;;;;;;;11.88;8.15;;;3.90;99.90;;;;;;459887;258;27519;-68
2022/01/23 09:22:49;;;;;;;11.10;8.10;;;3.90;99.90;;;;;;459916;258;27481;-68
2022/01/23 09:24:51;;;;;;;9.93;8.05;;;3.90;99.90;;;;;;459878;254;27511;-68
2022/01/23 09:27:02;;;;;;;11.30;7.40;;;3.90;99.90;;;;;;459866;258;27476;-68
2022/01/23 09:28:59;;;;;;;10.65;7.37;;;3.90;99.90;;;;;;459859;258;28428;-68
2022/01/23 09:30:57;;;;;;;11.10;6.85;;;4.00;99.90;;;;;;459839;258;27503;-68
2022/01/23 09:32:59;;;;;;;9.85;7.35;;;4.00;99.90;;;;;;459898;258;27532;-68
2022/01/23 09:35:01;;;;;;;15.00;8.15;;;4.00;99.90;;;;;;459894;258;27462;-68
2022/01/23 09:37:01;;;;;;;14.30;8.10;;;4.00;99.90;;;;;;459850;258;27486;-68
2022/01/23 09:39:03;;;;;;;10.43;7.28;;;4.00;99.90;;;;;;459851;258;27480;-68
2022/01/23 09:41:04;;;;;;;10.93;7.70;;;4.00;99.90;;;;;;459861;258;27560;-68
2022/01/23 09:43:06;;;;;;;11.95;7.90;;;4.00;99.90;;;;;;459887;258;27535;-68
2022/01/23 09:45:07;;;;;;;12.13;8.13;;;4.10;99.90;;;;;;459887;258;28329;-69
2022/01/23 09:47:07;;;;;;;11.85;8.48;;;4.10;99.90;;;;;;459878;258;27975;-68
2022/01/23 09:49:09;;;;;;;12.30;7.12;;;4.20;99.90;;;;;;459866;258;28672;-68
2022/01/23 09:51:10;;;;;;;9.48;7.47;;;4.20;99.90;;;;;;459877;258;27543;-69
2022/01/23 09:53:11;;;;;;;9.90;7.70;;;4.10;99.90;;;;;;459900;258;27502;-69
2022/01/23 09:55:12;;;;;;;12.13;8.38;;;4.20;99.90;;;;;;459882;258;27548;-68
2022/01/23 09:57:15;;;;;;;14.87;9.55;;;4.20;99.90;;;;;;459865;258;27502;-68
2022/01/23 09:59:15;;;;;;;15.00;9.02;;;4.20;99.90;;;;;;459871;258;27493;-69
2022/01/23 10:01:16;;;;;;;14.07;9.73;;;4.20;99.90;;;;;;459900;258;27562;-69
2022/01/23 10:03:19;;;;;;;14.70;9.68;;;4.10;99.90;;;;;;459880;258;27614;-68
2022/01/23 10:05:19;;;;;;;16.33;9.75;;;4.20;99.90;;;;;;459852;258;28021;-69
2022/01/23 10:07:23;;;;;;;12.00;8.77;;;4.20;99.90;;;;;;459854;258;28084;-68
2022/01/23 10:09:21;;;;;;;18.40;10.55;;;4.20;99.90;;;;;;459670;258;27606;-68
2022/01/23 10:11:22;;;;;;;18.58;10.75;;;4.20;99.90;;;;;;459881;258;27467;-69
2022/01/23 10:13:24;;;;;;;14.18;9.50;;;4.20;99.90;;;;;;459870;258;27507;-71
2022/01/23 10:15:25;;;;;;;15.68;10.25;;;4.30;99.90;;;;;;459860;258;27470;-70
2022/01/23 10:17:26;;;;;;;16.70;11.23;;;4.30;99.90;;;;;;459857;258;27514;-70
2022/01/23 10:19:28;;;;;;;14.05;10.43;;;4.20;99.90;;;;;;459874;258;27634;-70
2022/01/23 10:21:29;;;;;;;17.83;10.57;;;4.20;99.90;;;;;;459874;258;27950;-68
2022/01/23 10:23:30;;;;;;;17.45;10.50;;;4.20;99.90;;;;;;459859;258;27990;-68
2022/01/23 10:25:31;;;;;;;19.33;11.18;;;4.20;99.90;;;;;;459845;258;27460;-68
2022/01/23 10:27:33;;;;;;;14.35;9.55;;;4.30;99.90;;;;;;459878;258;27511;-68
2022/01/23 10:29:36;;;;;;;16.12;10.32;;;4.30;99.90;;;;;;459889;258;27597;-68
2022/01/23 10:31:35;;;;;;;14.70;9.77;;;4.30;99.90;;;;;;459876;258;27474;-68
2022/01/23 10:33:36;;;;;;;16.20;10.48;;;4.20;99.90;;;;;;459830;258;27514;-70
2022/01/23 10:35:38;;;;;;;17.02;10.75;;;4.30;99.90;;;;;;459847;258;28514;-68
2022/01/23 10:37:40;;;;;;;15.52;9.95;;;4.30;99.90;;;;;;459878;258;27955;-68
2022/01/23 10:39:40;;;;;;;14.63;9.93;;;4.30;99.90;;;;;;459863;258;28101;-68
2022/01/23 10:50:23;;;;;;;18.17;10.20;;;4.30;99.90;;;;;;459877;258;27468;-68
2022/01/23 10:52:24;;;;;;;18.15;10.60;;;4.30;99.90;;;;;;459865;258;27561;-68
2022/01/23 10:54:25;;;;;;;16.23;10.38;;;4.50;99.90;;;;;;459863;258;27478;-68
2022/01/23 10:56:27;;;;;;;16.60;10.60;;;4.60;99.90;;;;;;459870;258;27494;-68
2022/01/23 10:58:31;;;;;;;16.45;10.32;;;4.40;99.90;;;;;;459866;258;28844;-68
2022/01/23 11:00:29;;;;;;;16.30;10.63;;;4.40;99.90;;;;;;459867;258;28025;-68
2022/01/23 11:02:30;;;;;;;15.68;10.38;;;4.40;99.90;;;;;;459880;258;27615;-68
2022/01/23 11:04:32;;;;;;;16.85;10.18;;;4.50;99.90;;;;;;459860;258;27464;-68
2022/01/23 11:06:33;;;;;;;17.85;11.43;;;4.50;99.90;;;;;;459888;258;27467;-68
2022/01/23 11:08:34;;;;;;;21.10;10.80;;;4.50;99.90;;;;;;459878;258;28091;-68
2022/01/23 11:10:36;;;;;;;16.75;10.52;;;4.50;99.90;;;;;;459868;258;28099;-68
2022/01/23 11:17:26;;;;;;;17.15;10.27;;;4.60;99.90;;;;;;459866;258;27522;-68
2022/01/23 11:19:12;;;;;;;17.83;12.15;;;4.60;99.90;;;;;;459361;258;27567;-68
2022/01/23 11:21:13;;;;;;;16.50;10.35;;;4.60;99.90;;;;;;459876;258;27478;-68
2022/01/23 11:23:14;;;;;;;13.13;8.73;;;4.60;99.90;;;;;;459849;258;27518;-68
2022/01/23 11:25:15;;;;;;;17.58;10.60;;;4.70;99.90;;;;;;459851;258;27586;-68
2022/01/23 11:27:17;;;;;;;15.15;9.65;;;4.70;99.90;;;;;;459902;258;28067;-68
2022/01/23 11:29:18;;;;;;;15.93;10.95;;;4.80;99.90;;;;;;459878;258;28075;-68
2022/01/23 11:31:22;;;;;;;16.37;10.70;;;4.80;99.90;;;;;;459884;258;27627;-68
2022/01/23 11:33:21;;;;;;;17.08;10.77;;;4.80;99.90;;;;;;459863;258;27456;-68
2022/01/23 11:35:26;;;;;;;15.75;10.00;;;4.90;99.90;;;;;;459867;258;27579;-68
2022/01/23 11:37:23;;;;;;;14.98;10.20;;;4.90;99.90;;;;;;459867;258;27498;-68
2022/01/23 11:55:12;;;;;;;14.98;9.05;;;5.00;99.90;;;;;;459900;258;27538;-68
2022/01/23 11:57:13;;;;;;;13.32;8.93;;;4.90;99.90;;;;;;459901;258;27482;-68
2022/01/23 11:59:19;;;;;;;16.60;9.73;;;4.80;99.90;;;;;;459876;258;27566;-68
2022/01/23 12:01:16;;;;;;;15.98;11.12;;;4.90;99.90;;;;;;459717;258;28109;-69
2022/01/23 12:03:17;;;;;;;13.73;10.25;;;4.80;99.90;;;;;;459887;258;27976;-68
2022/01/23 12:05:20;;;;;;;17.77;10.07;;;4.80;99.90;;;;;;459887;258;27470;-68
2022/01/23 12:07:20;;;;;;;15.32;9.95;;;4.70;99.90;;;;;;459877;258;27594;-68
2022/01/23 12:09:21;;;;;;;14.82;9.90;;;4.80;99.90;;;;;;459874;258;27599;-68
2022/01/23 12:16:22;;;;;;;13.98;9.35;;;4.90;99.90;;;;;;459917;258;27967;-68
2022/01/23 12:17:45;;;;;;;12.05;8.40;;;5.00;99.90;;;;;;459814;258;27478;-70
2022/01/23 12:19:46;;;;;;;13.75;9.00;;;5.10;99.90;;;;;;460335;258;27515;-70
2022/01/23 12:21:47;;;;;;;15.65;9.77;;;5.10;99.90;;;;;;459884;258;27472;-68
2022/01/23 12:23:48;;;;;;;16.65;9.57;;;4.90;99.90;;;;;;459881;258;27511;-68
2022/01/23 12:25:49;;;;;;;17.25;10.57;;;5.00;99.90;;;;;;459883;258;27486;-70
2022/01/23 12:27:51;;;;;;;15.57;10.70;;;4.90;99.90;;;;;;459911;258;28014;-68
2022/01/23 12:29:52;;;;;;;16.80;10.95;;;4.90;99.90;;;;;;459906;258;27498;-69
2022/01/23 12:31:53;;;;;;;18.42;10.68;;;4.90;99.90;;;;;;459890;258;27496;-70
2022/01/23 12:34:01;;;;;;;17.92;11.15;;;5.00;99.90;;;;;;459885;258;27571;-68
2022/01/23 12:35:56;;;;;;;21.02;11.10;;;5.00;99.90;;;;;;459694;258;27538;-69
2022/01/23 12:38:00;;;;;;;19.05;11.43;;;4.90;99.90;;;;;;459879;258;27926;-70
2022/01/23 12:40:01;;;;;;;17.62;10.18;;;4.80;99.90;;;;;;459907;258;28871;-68
2022/01/23 12:42:05;;;;;;;16.95;10.18;;;4.80;99.90;;;;;;459878;258;28005;-68
2022/01/23 12:44:04;;;;;;;13.80;9.25;;;4.90;99.90;;;;;;459870;258;27548;-68
2022/01/23 12:46:05;;;;;;;16.62;11.00;;;4.90;99.90;;;;;;459889;258;27498;-68
2022/01/23 12:48:06;;;;;;;14.35;9.40;;;4.90;99.90;;;;;;459910;258;27563;-68
2022/01/23 12:50:07;;;;;;;17.55;10.35;;;4.80;99.90;;;;;;459888;258;27527;-70
2022/01/23 12:52:09;;;;;;;18.15;11.52;;;4.70;99.90;;;;;;459866;258;27986;-70
2022/01/23 12:54:10;;;;;;;17.52;11.45;;;4.70;99.90;;;;;;459876;258;27934;-68
2022/01/23 12:56:12;;;;;;;16.08;10.55;;;4.70;99.90;;;;;;459926;258;27462;-68
2022/01/23 12:58:13;;;;;;;17.33;10.35;;;4.70;99.90;;;;;;459860;258;27574;-68
2022/01/23 13:00:17;;;;;;;15.27;9.40;;;4.70;99.90;;;;;;459866;258;27565;-68
2022/01/23 13:02:18;;;;;;;14.75;9.80;;;4.80;99.90;;;;;;459861;258;27495;-68
2022/01/23 13:04:17;;;;;;;13.80;9.80;;;4.80;99.90;;;;;;459876;258;27969;-68
2022/01/23 13:06:17;;;;;;;19.20;10.43;;;4.80;99.90;;;;;;459896;258;28010;-68
2022/01/23 13:08:23;;;;;;;17.90;10.30;;;4.80;99.90;;;;;;459864;258;28089;-68
2022/01/23 13:14:27;;;;;;;13.23;8.85;;;4.80;99.90;;;;;;459906;258;27510;-68
2022/01/23 13:16:32;;;;;;;14.90;9.80;;;4.90;99.90;;;;;;459886;258;27544;-68
2022/01/23 13:28:04;;;;;;;18.40;11.80;;;5.00;99.90;;;;;;459900;258;27483;-68
2022/01/23 13:29:56;;;;;;;18.70;11.63;;;5.00;99.90;;;;;;459955;258;27998;-68
2022/01/23 13:31:37;;;;;;;18.23;11.77;;;5.00;99.90;;;;;;459972;258;28813;-69
2022/01/23 13:33:32;;;;;;;19.62;11.93;;;5.00;99.90;;;;;;459880;258;27552;-68
2022/01/23 13:35:39;;;;;;;16.17;10.70;;;4.90;99.90;;;;;;459881;258;27492;-68
2022/01/23 13:37:36;;;;;;;14.60;9.68;;;5.00;99.90;;;;;;459883;254;27479;-71